Time;durP1;ratioP1;P1;durP2;ratioP2;P2;SDS_P1;SDS_P2;PMS_P1;PMS_P2;Temp;Humidity;BMP_temperature;BMP_pressure;BME280_temperature;BME280_humidity;BME280_pressure;Samples;Min_cycle;Max_cycle;Signal;HPM_P1;HPM_P2
2022/11/08 00:01:38;;;;;;;;;11.00;10.00;;;;;12.51;100.00;100181.53;6254038;22;45275;-87
2022/11/08 00:04:06;;;;;;;;;10.33;7.33;;;;;12.54;100.00;100186.84;6249716;22;47554;-87
2022/11/08 00:14:45;;;;;;;;;10.00;8.67;;;;;12.43;100.00;100164.66;6253943;22;45700;-87
2022/11/08 00:17:13;;;;;;;;;12.67;11.67;;;;;12.42;100.00;100163.75;6250999;22;45382;-87
2022/11/08 00:19:38;;;;;;;;;10.00;10.00;;;;;12.43;100.00;100160.22;6252087;22;45379;-86
2022/11/08 00:22:04;;;;;;;;;11.00;9.67;;;;;12.40;100.00;100154.88;6252457;22;45347;-87
2022/11/08 00:24:29;;;;;;;;;11.33;11.00;;;;;12.38;100.00;100137.97;6250727;22;46865;-86
2022/11/08 00:26:55;;;;;;;;;12.00;9.33;;;;;12.29;100.00;100122.03;6251766;22;45236;-86
2022/11/08 00:29:20;;;;;;;;;14.33;11.00;;;;;12.35;100.00;100132.66;6251854;22;45970;-87
2022/11/08 00:31:45;;;;;;;;;10.33;9.00;;;;;12.36;100.00;100130.00;6255856;22;45234;-87
2022/11/08 00:34:11;;;;;;;;;10.00;10.00;;;;;12.28;100.00;100114.91;6254259;22;45239;-86
2022/11/08 00:36:36;;;;;;;;;6.67;6.67;;;;;12.31;100.00;100117.56;6251109;22;45310;-87
2022/11/08 00:39:02;;;;;;;;;9.67;8.00;;;;;12.26;100.00;100100.69;6253905;22;45295;-87
2022/11/08 00:41:27;;;;;;;;;13.00;12.00;;;;;12.29;100.00;100108.69;6253928;22;45568;-87
2022/11/08 00:43:52;;;;;;;;;11.00;9.67;;;;;12.20;100.00;100080.31;6255090;22;45255;-87
2022/11/08 00:46:18;;;;;;;;;11.00;11.00;;;;;12.10;100.00;100055.44;6252648;22;46195;-87
2022/11/08 00:48:43;;;;;;;;;9.00;9.00;;;;;12.12;100.00;100056.31;6253280;22;45451;-86
2022/11/08 00:51:10;;;;;;;;;10.00;7.67;;;;;12.21;100.00;100069.59;6252588;22;45456;-87
2022/11/08 00:53:37;;;;;;;;;10.67;9.00;;;;;12.20;100.00;100072.31;6251993;22;46868;-87
2022/11/08 00:56:09;;;;;;;;;8.33;7.33;;;;;12.21;100.00;100082.06;6249710;22;45956;-87
2022/11/08 00:58:34;;;;;;;;;10.67;10.67;;;;;12.19;100.00;100076.72;6252349;22;45437;-87
2022/11/08 01:01:00;;;;;;;;;6.00;6.00;;;;;12.18;100.00;100076.75;6250748;22;45781;-87
2022/11/08 01:03:26;;;;;;;;;10.33;10.33;;;;;12.17;100.00;100078.50;6266988;22;46191;-86
2022/11/08 01:05:53;;;;;;;;;11.00;10.33;;;;;12.12;100.00;100061.66;6256963;22;45465;-87
2022/11/08 01:08:21;;;;;;;;;10.00;10.00;;;;;12.13;100.00;100068.75;6256758;22;45326;-87
2022/11/08 01:10:50;;;;;;;;;8.00;8.00;;;;;12.11;100.00;100067.88;6256610;22;45355;-87
2022/11/08 01:13:17;;;;;;;;;9.00;6.67;;;;;12.11;100.00;100070.53;6284977;22;46270;-87
2022/11/08 01:15:44;;;;;;;;;8.00;8.00;;;;;12.08;100.00;100070.56;6255993;22;45430;-86
2022/11/08 01:18:14;;;;;;;;;8.00;6.00;;;;;12.01;100.00;100063.44;6257590;22;44746;-87
2022/11/08 01:20:42;;;;;;;;;8.00;8.00;;;;;12.04;100.00;100071.44;6258230;22;44869;-87
2022/11/08 01:23:08;;;;;;;;;8.00;8.00;;;;;11.94;100.00;100062.59;6255751;22;46620;-87
2022/11/08 01:25:36;;;;;;;;;11.00;9.67;;;;;12.00;100.00;100061.69;6256555;22;45711;-87
2022/11/08 01:28:01;;;;;;;;;9.00;5.67;;;;;11.97;100.00;100056.34;6256494;22;45392;-87
2022/11/08 01:30:27;;;;;;;;;6.33;6.33;;;;;11.90;100.00;100052.84;6254942;22;45304;-87
2022/11/08 01:32:52;;;;;;;;;12.00;10.00;;;;;11.93;100.00;100059.94;6256024;22;48012;-87
2022/11/08 01:35:17;;;;;;;;;7.33;7.33;;;;;11.94;100.00;100069.72;6254793;22;45215;-87
2022/11/08 01:37:43;;;;;;;;;8.00;8.00;;;;;11.85;100.00;100051.03;6255515;22;45595;-87
2022/11/08 01:40:12;;;;;;;;;11.00;9.00;;;;;11.91;100.00;100061.69;6284954;22;45401;-87
2022/11/08 01:42:38;;;;;;;;;4.00;4.00;;;;;11.87;100.00;100055.44;6256735;22;47693;-87
2022/11/08 01:45:10;;;;;;;;;10.00;8.33;;;;;11.90;100.00;100049.28;6255615;22;45784;-87
2022/11/08 01:47:36;;;;;;;;;5.00;5.00;;;;;11.86;100.00;100039.50;6285073;22;45384;-87
2022/11/08 01:50:09;;;;;;;;;7.67;6.33;;;;;11.83;100.00;100037.69;6255964;22;45147;-87
2022/11/08 01:52:47;;;;;;;;;5.00;5.00;;;;;11.77;100.00;100019.94;6284842;22;45534;-87
2022/11/08 01:55:21;;;;;;;;;5.00;5.00;;;;;11.74;100.00;100022.63;6257170;22;45374;-87
2022/11/08 01:57:55;;;;;;;;;6.00;6.00;;;;;11.83;100.00;100029.72;6256224;22;45445;-87
2022/11/08 02:00:21;;;;;;;;;8.00;6.00;;;;;11.79;100.00;100020.84;6256985;22;45306;-87
2022/11/08 02:02:55;;;;;;;;;5.33;5.33;;;;;11.78;100.00;100011.09;6255121;22;47299;-87
2022/11/08 02:05:28;;;;;;;;;4.67;4.67;;;;;11.74;100.00;100011.97;6256774;22;46180;-87
2022/11/08 02:08:02;;;;;;;;;7.00;6.00;;;;;11.78;100.00;100024.41;6256713;22;45851;-87
2022/11/08 02:10:43;;;;;;;;;6.00;6.00;;;;;11.78;100.00;100005.75;6255244;22;45613;-87
2022/11/08 02:13:14;;;;;;;;;7.00;4.67;;;;;11.69;100.00;99987.13;6254925;22;48128;-87
2022/11/08 02:15:43;;;;;;;;;5.00;4.00;;;;;11.75;100.00;99997.75;6255634;22;45315;-86
2022/11/08 02:18:13;;;;;;;;;7.33;7.33;;;;;11.74;100.00;99990.66;6282593;22;45315;-86
2022/11/08 02:20:54;;;;;;;;;10.00;5.00;;;;;11.76;100.00;99980.03;6255550;22;45721;-87
2022/11/08 02:23:31;;;;;;;;;7.33;5.00;;;;;11.75;100.00;99979.09;6283620;22;45153;-86
2022/11/08 02:25:56;;;;;;;;;4.67;4.67;;;;;11.71;100.00;99961.38;6256265;22;45407;-87
2022/11/08 02:28:22;;;;;;;;;4.67;4.67;;;;;11.62;100.00;99932.13;6257542;22;45694;-87
2022/11/08 02:30:47;;;;;;;;;5.33;5.33;;;;;11.65;100.00;99926.75;6230925;22;45325;-87
2022/11/08 02:33:18;;;;;;;;;5.33;3.67;;;;;11.74;100.00;99941.84;6256903;22;46995;-87
2022/11/08 02:35:50;;;;;;;;;6.00;4.33;;;;;11.77;100.00;99937.38;6256519;22;45165;-86
2022/11/08 02:38:16;;;;;;;;;5.00;5.00;;;;;11.63;100.00;99920.56;6255705;22;45423;-87
2022/11/08 02:40:47;;;;;;;;;5.00;5.00;;;;;11.78;100.00;99954.25;6284500;22;45233;-87
2022/11/08 02:43:13;;;;;;;;;5.25;5.00;;;;;11.76;100.00;99956.91;6258461;22;48534;-87
2022/11/08 02:45:39;;;;;;;;;3.33;3.33;;;;;11.66;100.00;99933.88;6286430;22;45440;-86
2022/11/08 02:48:05;;;;;;;;;3.67;3.67;;;;;11.73;100.00;99945.38;6259473;22;45777;-87
2022/11/08 02:50:30;;;;;;;;;4.75;3.25;;;;;11.72;100.00;99939.19;6258804;22;45420;-86
2022/11/08 02:52:59;;;;;;;;;6.67;5.00;;;;;11.74;100.00;99931.19;6285247;22;45288;-87
2022/11/08 02:55:25;;;;;;;;;6.00;4.67;;;;;11.66;100.00;99912.56;6256932;22;45357;-87
2022/11/08 02:57:51;;;;;;;;;3.00;3.00;;;;;11.69;100.00;99912.53;6257587;22;44840;-87
2022/11/08 03:00:16;;;;;;;;;5.00;5.00;;;;;11.73;100.00;99919.63;6256344;22;45312;-87
2022/11/08 03:02:50;;;;;;;;;5.00;5.00;;;;;11.70;100.00;99914.31;6256182;22;45535;-87
2022/11/08 03:05:18;;;;;;;;;7.33;5.00;;;;;11.82;100.00;99940.91;6256288;22;45712;-87
2022/11/08 03:07:47;;;;;;;;;6.00;5.00;;;;;11.82;100.00;99942.69;6285772;22;45257;-87
2022/11/08 03:10:13;;;;;;;;;4.00;4.00;;;;;11.84;100.00;99948.91;6259136;22;45321;-87
2022/11/08 03:12:39;;;;;;;;;6.67;4.00;;;;;11.78;100.00;99941.81;6258708;22;47724;-87
2022/11/08 03:15:06;;;;;;;;;5.33;5.00;;;;;11.82;100.00;99943.56;6259122;22;45277;-86
2022/11/08 03:17:32;;;;;;;;;5.67;4.33;;;;;11.88;100.00;99950.66;6286494;22;45355;-87
2022/11/08 03:19:58;;;;;;;;;4.00;4.00;;;;;11.90;100.00;99940.03;6258459;22;45580;-87
2022/11/08 03:22:24;;;;;;;;;3.67;3.67;;;;;11.97;100.00;99936.44;6257299;22;47313;-87
2022/11/08 03:24:50;;;;;;;;;4.00;4.00;;;;;12.02;100.00;99937.31;6256522;22;45188;-86
2022/11/08 03:27:17;;;;;;;;;4.00;4.00;;;;;12.10;100.00;99935.50;6285599;22;45739;-87
2022/11/08 03:29:43;;;;;;;;;4.00;4.00;;;;;12.11;100.00;99926.59;6256947;22;45362;-87
2022/11/08 03:32:09;;;;;;;;;6.67;5.33;;;;;12.11;100.00;99905.28;6256493;22;46777;-87
2022/11/08 03:34:34;;;;;;;;;2.67;1.67;;;;;12.17;100.00;99918.56;6286487;22;45277;-87
2022/11/08 03:37:00;;;;;;;;;4.00;4.00;;;;;12.18;100.00;99912.34;6258431;22;45047;-87
2022/11/08 03:39:25;;;;;;;;;3.33;3.00;;;;;12.25;100.00;99917.66;6257977;22;44813;-87
2022/11/08 03:41:50;;;;;;;;;6.00;6.00;;;;;12.25;100.00;99906.97;6285495;22;45441;-87
2022/11/08 03:44:16;;;;;;;;;4.67;4.00;;;;;12.22;100.00;99897.22;6256559;22;44604;-87
2022/11/08 03:46:41;;;;;;;;;2.67;2.67;;;;;12.30;100.00;99911.41;6257838;22;45303;-87
2022/11/08 03:49:07;;;;;;;;;4.67;4.67;;;;;12.36;100.00;99916.69;6285742;22;45263;-87
2022/11/08 03:51:32;;;;;;;;;5.33;5.33;;;;;12.34;100.00;99912.25;6284399;22;45757;-87
2022/11/08 03:53:57;;;;;;;;;7.67;7.67;;;;;12.40;100.00;99912.19;6255570;22;45282;-87
2022/11/08 03:56:23;;;;;;;;;11.67;11.00;;;;;12.43;100.00;99912.19;6257506;22;45624;-87
2022/11/08 03:58:49;;;;;;;;;5.00;5.00;;;;;12.45;100.00;99906.84;6285051;22;45391;-87
2022/11/08 04:01:14;;;;;;;;;6.00;6.00;;;;;12.43;100.00;99904.19;6256923;22;47343;-87
2022/11/08 04:03:39;;;;;;;;;7.00;7.00;;;;;12.38;100.00;99895.31;6250624;22;45510;-86
2022/11/08 04:06:06;;;;;;;;;4.00;4.00;;;;;12.49;100.00;99905.94;6252659;22;44808;-87
2022/11/08 04:08:31;;;;;;;;;10.00;9.00;;;;;12.48;100.00;99897.06;6251608;22;45440;-87
2022/11/08 04:15:13;;;;;;;;;8.67;8.33;;;;;12.46;100.00;99909.50;6253977;22;45460;-87
2022/11/08 04:16:31;;;;;;;;;5.00;4.00;;;;;12.43;100.00;99912.19;6253985;22;45163;-87
2022/11/08 04:21:47;;;;;;;;;6.00;3.00;;;;;12.51;100.00;99906.81;6253585;22;45280;-87
2022/11/08 04:24:13;;;;;;;;;7.33;5.00;;;;;12.43;100.00;99895.31;6252028;22;45228;-87
2022/11/08 04:26:39;;;;;;;;;7.67;6.00;;;;;12.43;100.00;99898.84;6251883;22;45389;-87
2022/11/08 04:29:06;;;;;;;;;9.00;5.00;;;;;12.43;100.00;99906.84;6252093;22;45363;-87
2022/11/08 04:31:38;;;;;;;;;6.00;6.00;;;;;12.49;100.00;99917.47;6253251;22;47232;-87
2022/11/08 04:34:04;;;;;;;;;4.00;3.00;;;;;12.48;100.00;99917.47;6252348;22;45764;-87
2022/11/08 04:36:29;;;;;;;;;6.00;5.67;;;;;12.27;100.00;99876.75;6254209;22;45206;-87
2022/11/08 04:38:55;;;;;;;;;5.67;5.67;;;;;12.44;100.00;99908.63;6252186;22;45377;-87
2022/11/08 04:41:22;;;;;;;;;6.00;6.00;;;;;12.44;100.00;99913.94;6252447;22;45851;-86
2022/11/08 04:43:49;;;;;;;;;9.00;9.00;;;;;12.46;100.00;99914.81;6251297;22;45235;-87
2022/11/08 04:46:24;;;;;;;;;6.00;5.00;;;;;12.38;100.00;99901.56;6249696;22;45719;-87
2022/11/08 04:48:54;;;;;;;;;5.33;5.33;;;;;12.44;100.00;99908.63;6252487;22;45311;-87
2022/11/08 04:51:31;;;;;;;;;3.67;3.67;;;;;12.44;100.00;99907.75;6251723;22;46847;-87
2022/11/08 04:53:59;;;;;;;;;6.00;4.33;;;;;12.45;100.00;99910.41;6250321;22;45313;-87
2022/11/08 04:56:27;;;;;;;;;6.00;2.33;;;;;12.46;100.00;99903.28;6251448;22;45354;-87
2022/11/08 04:58:55;;;;;;;;;6.00;6.00;;;;;12.40;100.00;99890.88;6251759;22;45533;-87
2022/11/08 05:01:26;;;;;;;;;9.00;5.00;;;;;12.46;100.00;99906.81;6248743;22;45833;-87
2022/11/08 05:03:52;;;;;;;;;4.00;4.00;;;;;12.46;100.00;99890.81;6267046;22;45404;-87
2022/11/08 05:06:23;;;;;;;;;8.00;6.00;;;;;12.45;100.00;99877.53;6257419;22;45398;-87
2022/11/08 05:08:49;;;;;;;;;2.33;2.00;;;;;12.44;100.00;99875.72;6285996;22;45819;-87
2022/11/08 05:11:20;;;;;;;;;5.67;5.33;;;;;12.43;100.00;99885.53;6257165;22;45424;-87
2022/11/08 05:13:46;;;;;;;;;6.00;5.33;;;;;12.35;100.00;99890.91;6257593;22;45322;-87
2022/11/08 05:16:20;;;;;;;;;3.33;3.33;;;;;12.39;100.00;99886.44;6256149;22;45519;-87
2022/11/08 05:18:46;;;;;;;;;4.33;4.00;;;;;12.48;100.00;99905.06;6286195;22;45324;-87
2022/11/08 05:23:59;;;;;;;;;6.00;3.67;;;;;12.48;100.00;99893.47;6283262;22;45610;-87
2022/11/08 05:26:26;;;;;;;;;6.67;3.00;;;;;12.46;100.00;99881.94;6283823;22;45379;-87
2022/11/08 05:28:51;;;;;;;;;3.33;3.33;;;;;12.45;100.00;99899.72;6255802;22;45373;-87
2022/11/08 05:31:17;;;;;;;;;7.00;3.67;;;;;12.47;100.00;99892.59;6284057;22;45325;-87
2022/11/08 05:33:43;;;;;;;;;4.00;4.00;;;;;12.51;100.00;99905.03;6256621;22;45404;-87
2022/11/08 05:36:11;;;;;;;;;3.33;3.33;;;;;12.53;100.00;99905.03;6285784;22;45308;-87
2022/11/08 05:41:59;;;;;;;;;1.67;1.67;;;;;12.46;100.00;99901.50;6285520;22;45317;-87
2022/11/08 05:44:24;;;;;;;;;5.00;5.00;;;;;12.48;100.00;99905.06;6284801;22;45276;-87
2022/11/08 05:46:49;;;;;;;;;2.67;2.67;;;;;12.48;100.00;99905.06;6285680;22;44659;-86
2022/11/08 05:49:15;;;;;;;;;3.33;3.33;;;;;12.43;100.00;99893.53;6257878;22;45272;-86
2022/11/08 05:51:40;;;;;;;;;3.67;3.67;;;;;12.49;100.00;99895.28;6257610;22;48594;-86
2022/11/08 05:54:07;;;;;;;;;4.00;4.00;;;;;12.43;100.00;99884.66;6257530;22;45210;-87
2022/11/08 05:56:32;;;;;;;;;3.33;3.33;;;;;12.44;100.00;99886.41;6284690;22;45515;-86
2022/11/08 05:58:58;;;;;;;;;4.00;3.00;;;;;12.44;100.00;99881.94;6258668;22;45482;-87
2022/11/08 06:01:23;;;;;;;;;3.33;2.67;;;;;12.35;100.00;99880.25;6284410;22;48595;-87
2022/11/08 06:03:49;;;;;;;;;4.00;4.00;;;;;12.37;100.00;99890.91;6283034;22;45423;-87
2022/11/08 06:06:16;;;;;;;;;3.00;3.00;;;;;12.43;100.00;99893.53;6255139;22;45302;-87
2022/11/08 06:08:43;;;;;;;;;2.00;2.00;;;;;12.41;100.00;99876.66;6285922;22;45207;-87
2022/11/08 06:11:12;;;;;;;;;5.00;5.00;;;;;12.32;100.00;99863.38;6257893;22;47651;-87
2022/11/08 06:13:44;;;;;;;;;3.00;3.00;;;;;12.38;100.00;99898.00;6256127;22;45351;-86
2022/11/08 06:16:12;;;;;;;;;3.00;3.00;;;;;12.37;100.00;99897.13;6255489;22;45320;-87
2022/11/08 06:18:38;;;;;;;;;3.00;3.00;;;;;12.27;100.00;99882.06;6258873;22;45890;-87
2022/11/08 06:21:05;;;;;;;;;4.33;3.33;;;;;12.38;100.00;99906.91;6258803;22;47450;-87
2022/11/08 06:23:31;;;;;;;;;3.67;3.67;;;;;12.33;100.00;99902.50;6257783;22;45361;-87
2022/11/08 06:25:59;;;;;;;;;4.67;3.67;;;;;12.30;100.00;99873.16;6286031;22;45348;-87
2022/11/08 06:28:25;;;;;;;;;4.67;3.00;;;;;12.37;100.00;99885.56;6258580;22;45373;-87
2022/11/08 06:30:50;;;;;;;;;2.67;2.67;;;;;12.36;100.00;99891.78;6257609;22;48235;-87
2022/11/08 06:33:16;;;;;;;;;4.33;4.33;;;;;12.35;100.00;99884.69;6255952;22;45766;-86
2022/11/08 06:35:42;;;;;;;;;2.67;2.67;;;;;12.39;100.00;99878.44;6285217;22;45260;-87
2022/11/08 06:38:07;;;;;;;;;3.00;3.00;;;;;12.38;100.00;99892.66;6257849;22;45570;-86
2022/11/08 06:40:33;;;;;;;;;4.33;3.00;;;;;12.39;100.00;99894.44;6256990;22;48118;-87
2022/11/08 06:42:59;;;;;;;;;3.00;3.00;;;;;12.40;100.00;99914.88;6258125;22;45619;-87
2022/11/08 06:45:25;;;;;;;;;4.00;4.00;;;;;12.40;100.00;99941.53;6258186;22;45345;-87
2022/11/08 06:47:58;;;;;;;;;1.00;1.00;;;;;12.40;100.00;99923.78;6258635;22;44926;-87
2022/11/08 06:50:23;;;;;;;;;5.00;3.33;;;;;12.34;100.00;99912.25;6291245;22;45222;-87
2022/11/08 06:53:04;;;;;;;;;3.00;3.00;;;;;12.41;100.00;99912.19;6259115;22;45456;-87
2022/11/08 06:55:33;;;;;;;;;5.00;4.00;;;;;12.40;100.00;99906.88;6259716;22;45428;-87
2022/11/08 06:58:03;;;;;;;;;3.00;2.33;;;;;12.45;100.00;99926.41;6262364;22;45453;-87
2022/11/08 07:00:34;;;;;;;;;3.00;3.00;;;;;12.47;100.00;99927.28;6264048;22;48777;-87
2022/11/08 07:03:03;;;;;;;;;4.00;4.00;;;;;12.45;100.00;99928.19;6264250;22;45369;-87
2022/11/08 07:05:30;;;;;;;;;5.00;3.67;;;;;12.41;100.00;99921.97;6264757;22;45414;-86
2022/11/08 07:07:57;;;;;;;;;4.00;4.00;;;;;12.33;100.00;99906.03;6264846;22;45334;-86
2022/11/08 07:10:25;;;;;;;;;2.67;2.67;;;;;12.44;100.00;99924.63;6268887;22;46722;-87
2022/11/08 07:13:02;;;;;;;;;5.33;5.33;;;;;12.49;100.00;99916.59;6291731;22;45231;-86
2022/11/08 07:15:29;;;;;;;;;3.00;3.00;;;;;12.52;100.00;99936.16;6293903;22;45379;-87
2022/11/08 07:18:00;;;;;;;;;2.67;2.67;;;;;12.55;100.00;99943.22;6264712;22;45441;-86
2022/11/08 07:20:25;;;;;;;;;6.00;4.00;;;;;12.51;100.00;99936.16;6264377;22;46693;-86
2022/11/08 07:22:54;;;;;;;;;5.00;3.00;;;;;12.41;100.00;99914.84;6267180;22;45419;-87
2022/11/08 07:25:25;;;;;;;;;3.00;3.00;;;;;12.57;100.00;99933.44;6264717;22;45315;-86
2022/11/08 07:28:02;;;;;;;;;4.00;4.00;;;;;12.48;100.00;99931.72;6263803;22;45509;-87
2022/11/08 07:30:34;;;;;;;;;4.00;3.00;;;;;12.32;100.00;99892.69;6289925;22;45418;-86
2022/11/08 07:33:00;;;;;;;;;5.33;5.33;;;;;12.63;100.00;99943.19;6265546;22;45333;-86
2022/11/08 07:35:26;;;;;;;;;6.00;4.33;;;;;12.69;100.00;99951.16;6265670;22;45457;-87
2022/11/08 07:37:52;;;;;;;;;5.33;4.00;;;;;12.72;100.00;99945.75;6290031;22;45345;-86
2022/11/08 07:40:18;;;;;;;;;2.00;2.00;;;;;12.78;100.00;99961.72;6264178;22;46452;-87
2022/11/08 07:42:44;;;;;;;;;3.00;2.00;;;;;12.84;100.00;99945.66;6265116;22;45317;-87
2022/11/08 07:45:10;;;;;;;;;3.00;3.00;;;;;12.86;100.00;99946.53;6264212;22;44713;-86
2022/11/08 07:47:39;;;;;;;;;3.00;3.00;;;;;12.92;100.00;99957.16;6264824;22;45201;-86
2022/11/08 07:50:05;;;;;;;;;7.33;7.33;;;;;12.92;100.00;99938.47;6266499;22;45472;-87
2022/11/08 07:52:35;;;;;;;;;7.00;7.00;;;;;12.97;100.00;99938.47;6290534;22;44739;-87
2022/11/08 07:55:00;;;;;;;;;2.00;2.00;;;;;13.07;100.00;99949.91;6263563;22;45151;-86
2022/11/08 07:57:31;;;;;;;;;2.67;2.67;;;;;13.08;100.00;99930.34;6264028;22;45379;-86
2022/11/08 07:59:57;;;;;;;;;5.33;4.00;;;;;13.04;100.00;99921.47;6264554;22;47026;-86
2022/11/08 08:02:23;;;;;;;;;2.00;2.00;;;;;13.20;100.00;99943.59;6263605;22;45220;-87
2022/11/08 08:04:49;;;;;;;;;5.00;2.00;;;;;13.22;100.00;99941.78;6292869;22;45351;-86
2022/11/08 08:07:14;;;;;;;;;3.00;3.00;;;;;13.26;100.00;99926.63;6264394;22;44887;-86
2022/11/08 08:09:43;;;;;;;;;2.67;2.67;;;;;13.27;100.00;99913.28;6293942;22;45930;-86
2022/11/08 08:19:10;;;;;;;;;2.00;2.00;;;;;13.29;100.00;99865.16;6292382;22;45427;-86
2022/11/08 08:21:47;;;;;;;;;;;;;;;;;;;;;
2022/11/08 08:24:16;;;;;;;;;3.33;3.33;;;;;13.59;100.00;99893.34;6269344;22;73159;-86
2022/11/08 08:43:03;;;;;;;;;;;;;;;;;;;;;
2022/11/08 08:45:35;;;;;;;;;5.00;3.00;;;;;14.57;100.00;99966.94;6290756;22;71508;-87
2022/11/08 08:51:39;;;;;;;;;2.00;2.00;;;;;14.55;100.00;99891.13;6258579;22;45331;-86
2022/11/08 08:57:39;;;;;;;;;;;;;;;;;;;;;
2022/11/08 09:00:31;;;;;;;;;3.00;3.00;;;;;15.22;100.00;99933.75;6193673;23;69294;-87
2022/11/08 09:27:31;;;;;;;;;5.00;5.00;;;;;15.75;100.00;99965.84;6266446;22;46851;-87
2022/11/08 09:30:28;;;;;;;;;4.00;3.67;;;;;15.50;100.00;99923.41;6244620;22;45290;-86
2022/11/08 09:33:13;;;;;;;;;;;;;;;;;;;;;
2022/11/08 09:35:52;;;;;;;;;4.00;4.00;;;;;15.83;100.00;99971.06;6226702;22;66320;-86
2022/11/08 09:42:16;;;;;;;;;2.75;2.75;;;;;15.91;100.00;99951.22;6229902;22;45342;-87
2022/11/08 09:45:23;;;;;;;;;4.00;4.00;;;;;15.95;100.00;99936.84;6140025;23;45446;-87
2022/11/08 09:48:05;;;;;;;;;3.00;3.00;;;;;15.91;100.00;99926.22;6194105;23;45369;-87
2022/11/08 09:54:05;;;;;;;;;3.67;3.67;;;;;15.98;100.00;99931.41;6198249;22;45439;-84
2022/11/08 09:57:06;;;;;;;;;3.00;3.00;;;;;15.99;100.00;99905.47;6182129;22;45512;-84
2022/11/08 10:00:14;;;;;;;;;4.33;4.33;;;;;16.15;100.00;99939.09;6232150;22;45354;-85
2022/11/08 10:02:39;;;;;;;;;4.00;4.00;;;;;16.01;100.00;99914.38;6110985;23;47150;-85
2022/11/08 10:05:24;;;;;;;;;4.75;1.50;;;;;16.07;100.00;99908.00;6132512;22;45863;-87
2022/11/08 10:08:29;;;;;;;;;5.00;5.00;;;;;16.24;100.00;99937.13;6134774;23;45551;-87
2022/11/08 10:11:35;;;;;;;;;5.67;5.33;;;;;16.38;100.00;99951.13;6109918;23;45400;-87
2022/11/08 10:35:20;;;;;;;;;3.00;3.00;;;;;16.80;100.00;99948.34;6163668;23;45392;-86
2022/11/08 10:38:10;;;;;;;;;3.00;3.00;;;;;16.65;100.00;99903.09;6104618;23;44823;-86
2022/11/08 10:44:38;;;;;;;;;3.00;3.00;;;;;17.16;100.00;99951.09;6018197;23;45458;-86
2022/11/08 10:51:15;;;;;;;;;5.00;5.00;;;;;17.19;100.00;99948.34;6018496;23;44879;-87
2022/11/08 10:54:25;;;;;;;;;4.33;3.67;;;;;16.98;100.00;99902.25;5987501;23;46806;-89
2022/11/08 10:57:15;;;;;;;;;6.67;3.00;;;;;17.35;100.00;99940.72;5901650;23;46066;-89
2022/11/08 11:01:10;;;;;;;;;;;;;;;;;;;;;
2022/11/08 11:12:34;;;;;;;;;;;;;;;;;;;;;
2022/11/08 11:25:26;;;;;;;;;5.50;4.25;;;;;17.64;100.00;99909.50;5938527;23;45774;-88
2022/11/08 11:28:07;;;;;;;;;6.67;5.00;;;;;17.31;100.00;99858.41;5939794;23;45209;-85
2022/11/08 11:31:04;;;;;;;;;6.00;6.00;;;;;17.63;100.00;99921.16;6174367;22;46357;-86
2022/11/08 11:33:43;;;;;;;;;2.75;2.75;;;;;17.38;100.00;99884.22;6285001;22;45235;-87
2022/11/08 11:36:17;;;;;;;;;3.50;2.00;;;;;17.50;100.00;99907.19;6265509;22;44692;-87
2022/11/08 11:39:29;;;;;;;;;8.00;7.67;;;;;17.68;100.00;99938.94;6267025;22;44787;-87
2022/11/08 11:42:25;;;;;;;;;3.75;3.75;;;;;17.73;100.00;99928.94;6265212;22;46971;-86
2022/11/08 11:45:20;;;;;;;;;6.00;3.50;;;;;17.89;100.00;99940.16;6265815;22;45571;-88
2022/11/08 11:48:15;;;;;;;;;3.00;3.00;;;;;18.01;100.00;99920.09;6292475;22;45400;-86
2022/11/08 11:50:47;;;;;;;;;6.50;5.00;;;;;18.03;100.00;99904.78;6268602;22;45514;-85
2022/11/08 11:53:42;;;;;;;;;5.00;5.00;;;;;18.12;100.00;99909.03;6293856;22;45430;-87
2022/11/08 11:56:29;;;;;;;;;8.00;8.00;;;;;18.17;100.00;99915.13;6139905;23;45799;-86
2022/11/08 11:59:15;;;;;;;;;4.67;4.67;;;;;18.24;100.00;99931.97;6115851;23;45264;-86
2022/11/08 12:12:16;;;;;;;;;5.50;5.50;;;;;18.36;100.00;99904.66;6086444;23;45561;-87
2022/11/08 12:15:25;;;;;;;;;6.00;5.00;;;;;18.48;100.00;99909.69;6057364;23;44891;-85
2022/11/08 12:18:09;;;;;;;;;6.67;6.67;;;;;18.48;100.00;99909.69;6082462;23;45219;-86
2022/11/08 12:24:29;;;;;;;;;5.67;5.00;;;;;18.42;100.00;99888.34;6083751;23;44676;-87
2022/11/08 12:27:19;;;;;;;;;4.00;4.00;;;;;18.42;100.00;99896.44;6082742;23;44815;-86
2022/11/08 12:30:14;;;;;;;;;8.33;6.67;;;;;18.40;100.00;99900.97;6183518;22;46989;-86
2022/11/08 12:33:17;;;;;;;;;6.67;6.67;;;;;18.33;100.00;99894.88;6230791;22;44832;-87
2022/11/08 12:36:23;;;;;;;;;5.67;5.67;;;;;18.35;100.00;99900.22;6204327;22;44801;-87
2022/11/08 12:50:34;;;;;;;;;7.00;4.00;;;;;17.99;100.00;99863.63;6254342;22;46732;-86
2022/11/08 13:00:54;;;;;;;;;4.00;4.00;;;;;17.85;100.00;99864.97;6199526;23;45501;-85
2022/11/08 13:04:19;;;;;;;;;8.67;8.67;;;;;17.99;100.00;99895.03;6143363;23;45493;-86
2022/11/08 13:17:25;;;;;;;;;;;;;;;;;;;;;
2022/11/08 13:24:00;;;;;;;;;3.00;3.00;;;;;18.24;100.00;99873.66;6026864;23;45397;-84
2022/11/08 13:27:02;;;;;;;;;4.00;4.00;;;;;18.23;100.00;99833.31;6037698;23;44999;-85
2022/11/08 13:29:34;;;;;;;;;3.50;3.50;;;;;18.20;100.00;99828.94;6111564;23;44955;-85
2022/11/08 13:36:05;;;;;;;;;2.75;2.75;;;;;18.15;100.00;99815.59;6026777;23;44783;-85
2022/11/08 13:39:22;;;;;;;;;5.25;5.25;;;;;18.28;100.00;99843.03;6048502;23;45338;-84
2022/11/08 13:42:49;;;;;;;;;;;;;;;;;;;;;
2022/11/08 13:56:12;;;;;;;;;;;;;;;;;;;;;
2022/11/08 13:59:55;;;;;;;;;4.00;4.00;;;;;18.55;100.00;99884.31;5983283;23;73722;-86
2022/11/08 14:03:04;;;;;;;;;6.25;5.00;;;;;18.61;100.00;99874.28;5911519;24;45288;-86
2022/11/08 14:06:16;;;;;;;;;;;;;;;;;;;;;
2022/11/08 14:09:43;;;;;;;;;;;;;;;;;;;;;
2022/11/08 14:12:56;;;;;;;;;;;;;;;;;;;;;
2022/11/08 14:22:11;;;;;;;;;7.00;7.00;;;;;18.55;100.00;99868.16;6103941;23;45627;-84
2022/11/08 14:25:32;;;;;;;;;8.00;6.25;;;;;18.64;100.00;99890.31;6102905;23;45582;-83
2022/11/08 15:03:12;;;;;;;;;3.25;3.25;;;;;18.29;100.00;99849.28;6199363;23;45326;-85
2022/11/08 15:06:10;;;;;;;;;6.25;5.25;;;;;18.11;100.00;99827.38;6085994;23;45261;-83
2022/11/08 15:08:55;;;;;;;;;2.00;2.00;;;;;18.16;100.00;99855.06;6108355;23;45110;-85
2022/11/08 15:12:27;;;;;;;;;6.75;4.75;;;;;17.87;100.00;99820.97;6106746;23;45324;-84
2022/11/08 15:18:46;;;;;;;;;3.25;3.25;;;;;18.03;100.00;99863.53;5962379;23;45458;-85
2022/11/08 15:32:16;;;;;;;;;3.00;3.00;;;;;17.99;100.00;99852.00;5908601;24;44946;-86
2022/11/08 15:35:04;;;;;;;;;;;;;;;;;;;;;
2022/11/08 15:37:45;;;;;;;;;6.00;4.00;;;;;17.75;100.00;99837.44;5888075;23;74157;-84
2022/11/08 15:40:47;;;;;;;;;4.25;4.25;;;;;17.86;100.00;99858.69;5991200;23;45379;-84
2022/11/08 15:43:54;;;;;;;;;4.50;4.50;;;;;17.65;100.00;99842.19;6068490;23;45376;-83
2022/11/08 15:46:45;;;;;;;;;;;;;;;;;;;;;
2022/11/08 15:49:37;;;;;;;;;4.50;3.00;;;;;17.44;100.00;99826.72;6050781;23;74486;-84
2022/11/08 15:52:04;;;;;;;;;5.25;4.00;;;;;17.56;100.00;99837.13;6051868;23;45282;-84
2022/11/08 15:57:49;;;;;;;;;6.00;4.00;;;;;17.51;100.00;99848.00;5968676;23;44824;-85
2022/11/08 16:01:21;;;;;;;;;5.25;4.00;;;;;17.35;100.00;99831.44;6024449;23;47042;-85
2022/11/08 16:03:47;;;;;;;;;6.00;4.50;;;;;17.36;100.00;99825.13;5992813;23;45290;-84
2022/11/08 16:09:47;;;;;;;;;3.00;2.00;;;;;17.33;100.00;99841.34;6019970;23;45377;-85
2022/11/08 16:12:16;;;;;;;;;5.00;4.75;;;;;17.16;100.00;99814.06;6015868;23;47128;-85
2022/11/08 16:14:44;;;;;;;;;3.25;3.25;;;;;17.24;100.00;99836.22;6017577;23;45522;-85
2022/11/08 16:17:15;;;;;;;;;5.00;3.00;;;;;17.38;100.00;99881.53;5992449;23;45362;-84
2022/11/08 16:20:15;;;;;;;;;4.00;3.00;;;;;17.33;100.00;99870.91;5992323;23;45345;-84
2022/11/08 16:23:05;;;;;;;;;4.00;4.00;;;;;17.05;100.00;99825.09;6017622;23;45365;-84
2022/11/08 16:26:12;;;;;;;;;4.00;4.00;;;;;17.03;100.00;99835.00;5971047;23;44744;-85
2022/11/08 16:31:50;;;;;;;;;4.25;4.25;;;;;17.19;100.00;99856.97;6309615;22;46256;-84
2022/11/08 16:34:15;;;;;;;;;4.75;4.75;;;;;17.09;100.00;99858.16;6288892;22;46957;-85
2022/11/08 16:37:12;;;;;;;;;3.25;3.00;;;;;17.15;100.00;99874.09;6291942;22;45353;-84